createdAt,value
2022-10-05T00:00:30.744Z,60.81
2022-10-05T00:01:30.933Z,60.91
2022-10-05T00:02:31.071Z,60.91
2022-10-05T00:03:31.247Z,60.91
2022-10-05T00:04:31.414Z,60.91
2022-10-05T00:05:31.603Z,60.91
2022-10-05T00:06:31.761Z,60.91
2022-10-05T00:07:31.909Z,60.91
2022-10-05T00:08:32.125Z,60.91
2022-10-05T00:09:32.300Z,60.91
2022-10-05T00:10:32.455Z,60.91
2022-10-05T00:11:32.614Z,60.91
2022-10-05T00:12:32.786Z,60.91
2022-10-05T00:13:32.982Z,60.91
2022-10-05T00:14:33.107Z,61.01
2022-10-05T00:15:33.276Z,60.91
2022-10-05T00:16:33.528Z,60.91
2022-10-05T00:17:33.614Z,61.01
2022-10-05T00:18:33.788Z,61.01
2022-10-05T00:19:33.950Z,60.91
2022-10-05T00:20:34.103Z,61.01
2022-10-05T00:21:34.299Z,61.01
2022-10-05T00:22:34.498Z,61.01
2022-10-05T00:23:34.675Z,61.01
2022-10-05T00:24:34.827Z,61.01
2022-10-05T00:25:34.979Z,61.01
2022-10-05T00:26:35.176Z,61.01
2022-10-05T00:27:35.339Z,61.01
2022-10-05T00:28:35.589Z,61.01
2022-10-05T00:29:35.706Z,61.01
2022-10-05T00:30:35.880Z,61.01
2022-10-05T00:31:36.136Z,61.14
2022-10-05T00:32:36.212Z,61.14
2022-10-05T00:33:36.666Z,61.14
2022-10-05T00:34:36.562Z,61.14
2022-10-05T00:35:36.715Z,61.14
2022-10-05T00:36:36.914Z,61.14
2022-10-05T00:37:37.065Z,61.14
2022-10-05T00:38:37.285Z,61.24
2022-10-05T00:39:37.429Z,61.24
2022-10-05T00:40:37.636Z,61.24
2022-10-05T00:41:37.791Z,61.24
2022-10-05T00:42:38.000Z,61.24
2022-10-05T00:43:38.156Z,61.24
2022-10-05T00:44:38.316Z,61.24
2022-10-05T00:45:38.511Z,61.24
2022-10-05T00:46:38.659Z,61.34
2022-10-05T00:47:38.839Z,61.34
2022-10-05T00:48:39.001Z,61.34
2022-10-05T00:49:39.181Z,61.34
2022-10-05T00:50:39.351Z,61.34
2022-10-05T00:51:39.507Z,61.34
2022-10-05T00:52:39.699Z,61.34
2022-10-05T00:53:39.861Z,61.34
2022-10-05T00:54:40.020Z,61.34
2022-10-05T00:55:40.183Z,61.34
2022-10-05T00:56:40.362Z,61.34
2022-10-05T00:57:40.544Z,61.44
2022-10-05T00:58:40.730Z,61.44
2022-10-05T00:59:40.901Z,61.44
2022-10-05T01:00:41.069Z,61.44
2022-10-05T01:01:41.285Z,61.44
2022-10-05T01:02:41.482Z,61.44
2022-10-05T01:03:41.631Z,61.44
2022-10-05T01:04:41.743Z,61.44
2022-10-05T01:05:41.915Z,61.47
2022-10-05T01:06:42.159Z,61.44
2022-10-05T01:07:42.285Z,61.54
2022-10-05T01:08:42.409Z,61.54
2022-10-05T01:09:42.569Z,61.57
2022-10-05T01:10:42.728Z,61.57
2022-10-05T01:11:42.894Z,61.57
2022-10-05T01:12:43.075Z,61.57
2022-10-05T01:13:43.235Z,61.57
2022-10-05T01:14:43.399Z,61.57
2022-10-05T01:15:43.575Z,61.57
2022-10-05T01:16:44.059Z,61.57
2022-10-05T01:17:43.945Z,61.67
2022-10-05T01:18:44.091Z,61.57
2022-10-05T01:19:44.235Z,61.57
2022-10-05T01:20:44.410Z,61.57
2022-10-05T01:21:44.562Z,61.57
2022-10-05T01:22:44.783Z,61.57
2022-10-05T01:23:44.910Z,61.57
2022-10-05T01:24:45.080Z,61.57
2022-10-05T01:25:45.235Z,61.57
2022-10-05T01:26:45.726Z,61.67
2022-10-05T01:27:45.588Z,61.67
2022-10-05T01:28:45.710Z,61.67
2022-10-05T01:29:45.875Z,61.67
2022-10-05T01:30:46.038Z,61.67
2022-10-05T01:31:46.217Z,61.67
2022-10-05T01:32:46.412Z,61.67
2022-10-05T01:33:46.562Z,61.67
2022-10-05T01:34:46.738Z,61.67
2022-10-05T01:35:46.893Z,61.67
2022-10-05T01:36:47.404Z,61.67
2022-10-05T01:37:47.244Z,61.67
2022-10-05T01:38:47.395Z,61.67
2022-10-05T01:39:47.561Z,61.67
2022-10-05T01:40:47.717Z,61.67
2022-10-05T01:41:47.910Z,61.67
2022-10-05T01:42:48.099Z,61.77
2022-10-05T01:43:48.224Z,61.67
2022-10-05T01:44:48.398Z,61.67
2022-10-05T01:45:48.625Z,61.67
2022-10-05T01:46:49.089Z,61.77
2022-10-05T01:47:48.926Z,61.67
2022-10-05T01:48:49.084Z,61.77
2022-10-05T01:49:49.241Z,61.77
2022-10-05T01:50:49.427Z,61.77
2022-10-05T01:51:49.588Z,61.67
2022-10-05T01:52:49.748Z,61.70
2022-10-05T01:53:49.900Z,61.77
2022-10-05T01:54:50.063Z,61.77
2022-10-05T01:55:50.249Z,61.77
2022-10-05T01:56:50.421Z,61.70
2022-10-05T01:57:50.583Z,61.70
2022-10-05T01:58:50.740Z,61.80
2022-10-05T01:59:50.901Z,61.80
2022-10-05T02:00:51.165Z,61.67
2022-10-05T02:01:51.307Z,61.80
2022-10-05T02:02:51.410Z,61.80
2022-10-05T02:03:51.572Z,61.80
2022-10-05T02:05:06.974Z,61.80
2022-10-05T02:05:52.930Z,61.80
2022-10-05T02:06:52.123Z,61.80
2022-10-05T02:07:52.245Z,61.80
2022-10-05T02:08:52.405Z,61.80
2022-10-05T02:09:52.564Z,61.80
2022-10-05T02:10:52.728Z,61.80
2022-10-05T02:11:52.916Z,61.80
2022-10-05T02:12:53.079Z,61.80
2022-10-05T02:13:53.249Z,61.80
2022-10-05T02:14:53.399Z,61.80
2022-10-05T02:15:53.685Z,61.80
2022-10-05T02:16:53.804Z,61.80
2022-10-05T02:17:53.934Z,61.80
2022-10-05T02:18:54.093Z,61.80
2022-10-05T02:19:54.255Z,61.90
2022-10-05T02:20:54.406Z,61.80
2022-10-05T02:21:54.646Z,61.80
2022-10-05T02:22:54.767Z,61.90
2022-10-05T02:23:54.939Z,61.80
2022-10-05T02:24:55.088Z,61.80
2022-10-05T02:25:55.252Z,61.80
2022-10-05T02:26:55.450Z,61.90
2022-10-05T02:27:55.620Z,61.80
2022-10-05T02:28:55.757Z,61.90
2022-10-05T02:29:55.921Z,61.90
2022-10-05T02:30:56.089Z,61.90
2022-10-05T02:31:56.343Z,61.90
2022-10-05T02:32:56.423Z,61.90
2022-10-05T02:33:56.587Z,61.93
2022-10-05T02:34:56.740Z,61.93
2022-10-05T02:35:56.924Z,61.93
2022-10-05T02:36:57.109Z,61.93
2022-10-05T02:37:57.235Z,61.93
2022-10-05T02:38:57.402Z,61.93
2022-10-05T02:39:57.567Z,61.93
2022-10-05T02:40:57.722Z,62.04
2022-10-05T02:41:57.908Z,62.04
2022-10-05T02:42:58.092Z,62.04
2022-10-05T02:43:58.236Z,61.93
2022-10-05T02:44:58.444Z,62.04
2022-10-05T02:45:58.604Z,62.04
2022-10-05T02:46:58.891Z,62.04
2022-10-05T02:47:58.906Z,62.04
2022-10-05T02:48:59.074Z,62.04
2022-10-05T02:49:59.262Z,62.04
2022-10-05T02:50:59.394Z,62.04
2022-10-05T02:51:59.549Z,62.04
2022-10-05T02:52:59.742Z,62.13
2022-10-05T02:53:59.900Z,62.13
2022-10-05T02:55:00.057Z,62.13
2022-10-05T02:56:00.216Z,62.13
2022-10-05T02:57:00.377Z,62.13
2022-10-05T02:58:00.561Z,62.13
2022-10-05T02:59:00.721Z,62.13
2022-10-05T03:00:00.876Z,62.13
2022-10-05T03:01:01.097Z,62.13
2022-10-05T03:02:01.336Z,62.13
2022-10-05T03:03:01.404Z,62.13
2022-10-05T03:04:01.566Z,62.13
2022-10-05T03:05:01.730Z,62.13
2022-10-05T03:06:01.884Z,62.24
2022-10-05T03:07:02.081Z,62.13
2022-10-05T03:08:02.220Z,62.13
2022-10-05T03:09:02.362Z,62.13
2022-10-05T03:10:02.531Z,62.13
2022-10-05T03:11:02.694Z,62.24
2022-10-05T03:12:02.883Z,62.24
2022-10-05T03:13:03.038Z,62.26
2022-10-05T03:14:03.208Z,62.13
2022-10-05T03:15:03.367Z,62.26
2022-10-05T03:16:03.583Z,62.26
2022-10-05T03:17:03.742Z,62.26
2022-10-05T03:18:03.889Z,62.37
2022-10-05T03:19:04.050Z,62.37
2022-10-05T03:20:04.270Z,62.37
2022-10-05T03:21:04.401Z,62.37
2022-10-05T03:22:04.590Z,62.37
2022-10-05T03:23:04.734Z,62.37
2022-10-05T03:24:04.908Z,62.37
2022-10-05T03:25:05.066Z,62.46
2022-10-05T03:26:05.258Z,62.37
2022-10-05T03:27:05.435Z,62.37
2022-10-05T03:28:05.684Z,62.46
2022-10-05T03:29:05.777Z,62.46
2022-10-05T03:30:05.971Z,62.46
2022-10-05T03:31:06.211Z,62.46
2022-10-05T03:32:06.310Z,62.57
2022-10-05T03:33:06.478Z,62.57
2022-10-05T03:34:06.640Z,62.46
2022-10-05T03:35:06.853Z,62.46
2022-10-05T03:36:07.009Z,62.57
2022-10-05T03:37:07.217Z,62.57
2022-10-05T03:38:07.392Z,62.57
2022-10-05T03:39:07.559Z,62.57
2022-10-05T03:40:07.720Z,62.57
2022-10-05T03:41:07.889Z,62.57
2022-10-05T03:42:08.041Z,62.66
2022-10-05T03:43:08.222Z,62.57
2022-10-05T03:44:08.385Z,62.66
2022-10-05T03:45:08.553Z,62.57
2022-10-05T03:46:08.743Z,62.66
2022-10-05T03:47:08.901Z,62.57
2022-10-05T03:48:09.089Z,62.57
2022-10-05T03:49:09.249Z,62.57
2022-10-05T03:50:09.409Z,62.66
2022-10-05T03:51:09.564Z,62.66
2022-10-05T03:52:09.768Z,62.66
2022-10-05T03:53:09.952Z,62.66
2022-10-05T03:54:10.111Z,62.77
2022-10-05T03:55:10.272Z,62.77
2022-10-05T03:56:10.428Z,62.77
2022-10-05T03:57:10.577Z,62.77
2022-10-05T03:58:10.840Z,62.77
2022-10-05T03:59:10.964Z,62.77
2022-10-05T04:00:11.122Z,62.77
2022-10-05T04:01:11.368Z,62.77
2022-10-05T04:02:11.486Z,62.77
2022-10-05T04:03:11.647Z,62.77
2022-10-05T04:04:11.811Z,62.87
2022-10-05T04:05:11.969Z,62.77
2022-10-05T04:06:12.201Z,62.87
2022-10-05T04:07:12.332Z,62.87
2022-10-05T04:08:12.553Z,62.87
2022-10-05T04:09:12.710Z,62.87
2022-10-05T04:10:12.910Z,62.87
2022-10-05T04:11:13.083Z,62.87
2022-10-05T04:12:13.247Z,62.77
2022-10-05T04:13:13.420Z,62.77
2022-10-05T04:14:13.570Z,62.87
2022-10-05T04:15:17.986Z,62.77
2022-10-05T04:16:14.989Z,62.77
2022-10-05T04:18:29.133Z,62.87
2022-10-05T04:19:29.314Z,62.87
2022-10-05T04:20:29.522Z,62.97
2022-10-05T04:21:29.685Z,62.97
2022-10-05T04:22:29.918Z,63.00
2022-10-05T04:23:30.044Z,63.00
2022-10-05T04:24:30.204Z,63.00
2022-10-05T04:25:30.379Z,62.97
2022-10-05T04:26:30.567Z,62.87
2022-10-05T04:27:30.725Z,62.87
2022-10-05T04:28:32.387Z,62.77
2022-10-05T04:29:31.061Z,62.90
2022-10-05T04:30:31.235Z,62.87
2022-10-05T04:31:31.467Z,62.87
2022-10-05T04:32:31.587Z,62.87
2022-10-05T04:33:31.745Z,62.87
2022-10-05T04:34:31.914Z,62.87
2022-10-05T04:35:32.064Z,62.90
2022-10-05T04:36:32.279Z,62.77
2022-10-05T04:37:32.459Z,62.80
2022-10-05T04:38:32.629Z,62.87
2022-10-05T04:39:32.788Z,62.80
2022-10-05T04:40:32.955Z,62.80
2022-10-05T04:41:33.126Z,62.80
2022-10-05T04:42:33.284Z,62.80
2022-10-05T04:43:33.440Z,62.77
2022-10-05T04:44:33.594Z,62.80
2022-10-05T04:45:33.770Z,62.80
2022-10-05T04:46:34.047Z,62.80
2022-10-05T04:47:34.089Z,62.77
2022-10-05T04:48:34.285Z,62.77
2022-10-05T04:49:34.452Z,62.80
2022-10-05T04:50:34.596Z,62.80
2022-10-05T04:51:34.797Z,62.80
2022-10-05T04:52:34.924Z,62.90
2022-10-05T04:53:35.112Z,62.87
2022-10-05T04:54:35.263Z,62.90
2022-10-05T04:55:35.462Z,62.90
2022-10-05T04:56:35.634Z,62.90
2022-10-05T04:57:35.799Z,62.90
2022-10-05T04:58:40.020Z,62.90
2022-10-05T04:59:37.118Z,62.90
2022-10-05T05:00:36.342Z,62.90
2022-10-05T05:01:36.514Z,62.90
2022-10-05T05:02:36.635Z,62.90
2022-10-05T05:03:36.843Z,62.90
2022-10-05T05:04:36.968Z,62.90
2022-10-05T05:05:48.345Z,63.00
2022-10-05T05:06:38.366Z,63.00
2022-10-05T05:07:37.549Z,62.90
2022-10-05T05:08:37.685Z,63.00
2022-10-05T05:09:37.888Z,63.00
2022-10-05T05:10:38.045Z,63.00
2022-10-05T05:11:38.204Z,63.00
2022-10-05T05:12:38.378Z,63.00
2022-10-05T05:13:38.540Z,63.00
2022-10-05T05:14:38.697Z,63.00
2022-10-05T05:15:38.850Z,63.00
2022-10-05T05:16:39.049Z,63.10
2022-10-05T05:17:39.237Z,63.00
2022-10-05T05:18:39.396Z,63.10
2022-10-05T05:19:39.579Z,63.10
2022-10-05T05:20:39.744Z,63.10
2022-10-05T05:21:39.893Z,63.10
2022-10-05T05:22:40.090Z,63.10
2022-10-05T05:23:40.230Z,63.20
2022-10-05T05:24:40.391Z,63.20
2022-10-05T05:25:40.551Z,63.20
2022-10-05T05:26:40.713Z,63.20
2022-10-05T05:27:40.878Z,63.20
2022-10-05T05:28:41.126Z,63.20
2022-10-05T05:29:41.221Z,63.20
2022-10-05T05:30:41.406Z,63.20
2022-10-05T05:31:41.670Z,63.30
2022-10-05T05:32:41.751Z,63.30
2022-10-05T05:33:41.925Z,63.30
2022-10-05T05:34:42.083Z,63.30
2022-10-05T05:35:42.259Z,63.40
2022-10-05T05:36:42.435Z,63.40
2022-10-05T05:37:42.614Z,63.30
2022-10-05T05:38:42.803Z,63.30
2022-10-05T05:39:42.944Z,63.40
2022-10-05T05:40:43.180Z,63.40
2022-10-05T05:41:43.330Z,63.40
2022-10-05T05:42:43.494Z,63.40
2022-10-05T05:43:43.677Z,63.40
2022-10-05T05:44:43.849Z,63.40
2022-10-05T05:45:44.001Z,63.50
2022-10-05T05:47:02.792Z,63.50
2022-10-05T05:47:45.405Z,63.40
2022-10-05T05:48:44.573Z,63.40
2022-10-05T05:49:44.725Z,63.40
2022-10-05T05:50:44.900Z,63.50
2022-10-05T05:51:45.075Z,63.60
2022-10-05T05:52:45.257Z,63.50
2022-10-05T05:53:45.456Z,63.60
2022-10-05T05:54:45.615Z,63.50
2022-10-05T05:55:45.785Z,63.50
2022-10-05T05:56:46.204Z,63.60
2022-10-05T05:57:46.130Z,63.50
2022-10-05T05:58:46.362Z,63.60
2022-10-05T05:59:46.479Z,63.60
2022-10-05T06:00:46.663Z,63.60
2022-10-05T06:01:46.908Z,63.60
2022-10-05T06:02:47.192Z,63.60
2022-10-05T06:03:47.182Z,63.70
2022-10-05T06:04:47.315Z,63.70
2022-10-05T06:05:47.481Z,63.60
2022-10-05T06:06:48.129Z,63.60
2022-10-05T06:07:47.843Z,63.60
2022-10-05T06:08:48.046Z,63.70
2022-10-05T06:09:48.183Z,63.60
2022-10-05T06:10:48.363Z,63.30
2022-10-05T06:11:48.537Z,63.60
2022-10-05T06:12:48.766Z,63.47
2022-10-05T06:13:48.928Z,63.60
2022-10-05T06:14:49.076Z,63.47
2022-10-05T06:15:49.279Z,63.60
2022-10-05T06:16:49.975Z,63.57
2022-10-05T06:17:49.648Z,63.37
2022-10-05T06:18:49.795Z,63.67
2022-10-05T06:19:49.998Z,63.57
2022-10-05T06:20:50.150Z,63.47
2022-10-05T06:21:50.322Z,63.57
2022-10-05T06:22:50.517Z,63.57
2022-10-05T06:23:50.655Z,63.37
2022-10-05T06:24:50.835Z,63.37
2022-10-05T06:25:50.998Z,63.37
2022-10-05T06:26:51.181Z,63.47
2022-10-05T06:27:51.369Z,63.27
2022-10-05T06:28:51.526Z,63.47
2022-10-05T06:29:51.702Z,63.17
2022-10-05T06:30:51.892Z,63.47
2022-10-05T06:31:56.480Z,63.37
2022-10-05T06:32:53.264Z,63.78
2022-10-05T06:33:52.439Z,66.80
2022-10-05T06:34:52.624Z,69.52
2022-10-05T06:35:52.780Z,71.64
2022-10-05T06:36:52.950Z,72.04
2022-10-05T06:37:53.115Z,72.81
2022-10-05T06:38:53.311Z,73.61
2022-10-05T06:39:55.478Z,73.61
2022-10-05T06:40:54.633Z,73.52
2022-10-05T06:41:53.782Z,73.11
2022-10-05T06:42:53.974Z,72.81
2022-10-05T06:43:54.195Z,72.71
2022-10-05T06:44:54.322Z,72.47
2022-10-05T06:45:54.557Z,72.37
2022-10-05T06:46:54.697Z,71.67
2022-10-05T06:47:54.887Z,71.56
2022-10-05T06:48:55.061Z,70.96
2022-10-05T06:49:55.205Z,69.45
2022-10-05T06:50:55.385Z,69.82
2022-10-05T06:51:55.565Z,69.02
2022-10-05T06:52:55.735Z,68.31
2022-10-05T06:53:55.941Z,68.01
2022-10-05T06:54:56.109Z,68.21
2022-10-05T06:55:56.267Z,67.41
2022-10-05T06:56:56.427Z,67.41
2022-10-05T06:57:56.607Z,67.07
2022-10-05T06:58:56.816Z,66.87
2022-10-05T06:59:56.964Z,66.77
2022-10-05T07:00:57.220Z,66.57
2022-10-05T07:01:57.372Z,66.57
2022-10-05T07:02:57.462Z,66.67
2022-10-05T07:03:57.673Z,66.57
2022-10-05T07:04:57.818Z,66.57
2022-10-05T07:05:57.980Z,66.47
2022-10-05T07:06:58.155Z,66.54
2022-10-05T07:07:58.305Z,66.24
2022-10-05T07:08:58.440Z,65.94
2022-10-05T07:09:58.664Z,65.84
2022-10-05T07:10:58.790Z,65.94
2022-10-05T07:12:04.523Z,65.33
2022-10-05T07:13:00.120Z,65.41
2022-10-05T07:13:59.271Z,65.20
2022-10-05T07:14:59.467Z,65.20
2022-10-05T07:15:59.643Z,65.80
2022-10-05T07:16:59.852Z,65.20
2022-10-05T07:18:00.008Z,65.10
2022-10-05T07:19:00.185Z,64.90
2022-10-05T07:20:00.374Z,65.10
2022-10-05T07:21:00.537Z,64.70
2022-10-05T07:22:00.722Z,64.57
2022-10-05T07:23:00.853Z,64.57
2022-10-05T07:24:01.033Z,64.17
2022-10-05T07:25:01.214Z,64.17
2022-10-05T07:26:01.414Z,63.96
2022-10-05T07:27:01.560Z,64.27
2022-10-05T07:28:01.847Z,64.07
2022-10-05T07:29:01.942Z,64.27
2022-10-05T07:30:02.131Z,64.57
2022-10-05T07:31:02.318Z,64.34
2022-10-05T07:32:02.451Z,65.24
2022-10-05T07:33:02.630Z,66.05
2022-10-05T07:34:02.828Z,66.14
2022-10-05T07:35:02.968Z,66.44
2022-10-05T07:36:03.152Z,66.95
2022-10-05T07:37:03.327Z,67.65
2022-10-05T07:38:03.510Z,67.55
2022-10-05T07:39:03.708Z,67.52
2022-10-05T07:40:03.871Z,67.52
2022-10-05T07:41:04.050Z,67.22
2022-10-05T07:42:04.234Z,67.02
2022-10-05T07:43:04.430Z,66.91
2022-10-05T07:44:06.785Z,66.82
2022-10-05T07:45:05.771Z,66.78
2022-10-05T07:46:05.003Z,66.88
2022-10-05T07:47:05.092Z,66.99
2022-10-05T07:48:05.314Z,66.48
2022-10-05T07:49:05.465Z,66.68
2022-10-05T07:50:05.602Z,66.75
2022-10-05T07:51:05.803Z,66.55
2022-10-05T07:52:05.935Z,66.25
2022-10-05T07:53:06.120Z,65.95
2022-10-05T07:54:06.324Z,65.75
2022-10-05T07:55:06.474Z,65.55
2022-10-05T07:56:06.625Z,65.55
2022-10-05T07:57:06.814Z,65.42
2022-10-05T07:58:07.016Z,65.31
2022-10-05T07:59:07.154Z,65.01
2022-10-05T08:00:07.323Z,64.59
2022-10-05T08:01:07.483Z,64.48
2022-10-05T08:02:07.782Z,63.68
2022-10-05T08:03:07.972Z,63.89
2022-10-05T08:04:08.023Z,62.98
2022-10-05T08:05:08.208Z,63.08
2022-10-05T08:06:08.386Z,62.65
2022-10-05T08:07:08.589Z,62.95
2022-10-05T08:08:08.743Z,63.25
2022-10-05T08:09:08.918Z,62.75
2022-10-05T08:10:09.107Z,62.85
2022-10-05T08:11:09.299Z,62.45
2022-10-05T08:12:09.489Z,62.85
2022-10-05T08:13:09.629Z,63.15
2022-10-05T08:14:09.811Z,62.95
2022-10-05T08:15:10.017Z,62.55
2022-10-05T08:16:10.180Z,62.45
2022-10-05T08:17:10.361Z,62.45
2022-10-05T08:18:10.531Z,62.55
2022-10-05T08:19:10.718Z,62.55
2022-10-05T08:20:10.903Z,62.02
2022-10-05T08:21:11.102Z,61.92
2022-10-05T08:22:11.289Z,62.22
2022-10-05T08:23:11.463Z,62.02
2022-10-05T08:24:11.643Z,62.22
2022-10-05T08:25:11.827Z,62.12
2022-10-05T08:26:12.035Z,62.12
2022-10-05T08:27:12.180Z,62.62
2022-10-05T08:28:12.403Z,61.79
2022-10-05T08:29:13.926Z,61.99
2022-10-05T08:30:12.698Z,61.79
2022-10-05T08:31:12.941Z,61.29
2022-10-05T08:32:13.055Z,61.79
2022-10-05T08:33:13.235Z,61.59
2022-10-05T08:34:13.396Z,61.46
2022-10-05T08:35:13.555Z,61.76
2022-10-05T08:36:13.764Z,61.07
2022-10-05T08:37:13.926Z,61.07
2022-10-05T08:38:14.117Z,59.97
2022-10-05T08:39:14.311Z,60.14
2022-10-05T08:40:14.504Z,60.44
2022-10-05T08:41:14.659Z,60.74
2022-10-05T08:42:14.847Z,60.83
2022-10-05T08:43:15.008Z,61.24
2022-10-05T08:44:15.198Z,60.41
2022-10-05T08:45:15.359Z,60.41
2022-10-05T08:46:15.598Z,60.31
2022-10-05T08:47:15.699Z,60.21
2022-10-05T08:48:15.871Z,59.78
2022-10-05T08:49:16.030Z,58.78
2022-10-05T08:50:16.219Z,60.08
2022-10-05T08:51:16.415Z,60.17
2022-10-05T08:52:16.591Z,59.78
2022-10-05T08:53:16.783Z,58.98
2022-10-05T08:54:16.963Z,59.08
2022-10-05T08:55:17.163Z,59.58
2022-10-05T08:56:20.122Z,59.65
2022-10-05T08:57:17.524Z,59.25
2022-10-05T08:58:17.704Z,58.75
2022-10-05T08:59:17.868Z,59.35
2022-10-05T09:00:18.069Z,59.25
2022-10-05T09:01:18.274Z,58.45
2022-10-05T09:02:18.399Z,58.62
2022-10-05T09:03:18.523Z,58.72
2022-10-05T09:04:18.724Z,58.53
2022-10-05T09:05:18.862Z,58.83
2022-10-05T09:06:19.049Z,58.03
2022-10-05T09:07:19.247Z,58.03
2022-10-05T09:08:19.397Z,58.42
2022-10-05T09:09:19.564Z,58.72
2022-10-05T09:10:19.779Z,57.93
2022-10-05T09:11:19.888Z,57.50
2022-10-05T09:12:20.098Z,57.80
2022-10-05T09:13:20.237Z,57.20
2022-10-05T09:14:20.450Z,57.80
2022-10-05T09:15:25.729Z,57.80
2022-10-05T09:16:21.866Z,57.50
2022-10-05T09:17:20.940Z,57.60
2022-10-05T09:18:21.120Z,57.90
2022-10-05T09:19:22.256Z,58.00
2022-10-05T09:20:21.459Z,57.60
2022-10-05T09:21:21.656Z,57.30
2022-10-05T09:22:21.831Z,58.17
2022-10-05T09:23:22.054Z,57.37
2022-10-05T09:24:22.202Z,57.17
2022-10-05T09:25:22.396Z,57.57
2022-10-05T09:26:22.582Z,57.57
2022-10-05T09:27:22.732Z,57.87
2022-10-05T09:28:23.005Z,57.97
2022-10-05T09:29:23.075Z,57.47
2022-10-05T09:30:23.274Z,57.57
2022-10-05T09:31:23.472Z,56.98
2022-10-05T09:32:23.615Z,57.47
2022-10-05T09:33:23.804Z,57.28
2022-10-05T09:34:23.955Z,57.37
2022-10-05T09:35:24.109Z,56.87
2022-10-05T09:36:24.316Z,57.28
2022-10-05T09:37:24.457Z,57.37
2022-10-05T09:38:24.645Z,57.47
2022-10-05T09:39:24.829Z,57.47
2022-10-05T09:40:25.010Z,57.07
2022-10-05T09:41:25.179Z,57.37
2022-10-05T09:42:25.347Z,56.98
2022-10-05T09:43:25.529Z,57.64
2022-10-05T09:44:25.697Z,57.54
2022-10-05T09:45:25.886Z,57.54
2022-10-05T09:46:26.113Z,57.92
2022-10-05T09:47:26.230Z,57.82
2022-10-05T09:48:26.400Z,58.51
2022-10-05T09:49:26.579Z,58.51
2022-10-05T09:50:26.772Z,57.89
2022-10-05T09:51:26.951Z,58.58
2022-10-05T09:52:27.120Z,57.46
2022-10-05T09:53:27.292Z,57.46
2022-10-05T09:54:27.473Z,57.36
2022-10-05T09:55:27.651Z,56.96
2022-10-05T09:57:27.996Z,57.53
2022-10-05T09:58:28.186Z,56.54
2022-10-05T09:59:28.354Z,56.12
2022-10-05T10:00:28.534Z,55.62
2022-10-05T10:01:33.750Z,55.82
2022-10-05T10:02:29.913Z,56.21
2022-10-05T10:03:29.069Z,56.21
2022-10-05T10:04:29.175Z,56.81
2022-10-05T10:05:29.368Z,56.81
2022-10-05T10:06:29.577Z,55.52
2022-10-05T10:07:29.726Z,55.82
2022-10-05T10:08:29.913Z,55.72
2022-10-05T10:09:30.951Z,55.40
2022-10-05T10:10:30.266Z,55.00
2022-10-05T10:11:30.469Z,54.53
2022-10-05T10:12:30.643Z,54.30
2022-10-05T10:13:30.828Z,55.40
2022-10-05T10:14:31.010Z,55.40
2022-10-05T10:15:31.219Z,55.10
2022-10-05T10:16:31.381Z,55.29
2022-10-05T10:17:31.519Z,55.59
2022-10-05T10:19:46.786Z,55.02
2022-10-05T10:20:46.954Z,54.72
2022-10-05T10:21:47.370Z,54.63
2022-10-05T10:22:47.281Z,55.32
2022-10-05T10:23:47.457Z,55.12
2022-10-05T10:24:47.646Z,55.62
2022-10-05T10:25:47.785Z,55.42
2022-10-05T10:26:47.969Z,55.12
2022-10-05T10:27:52.341Z,55.42
2022-10-05T10:28:48.357Z,55.12
2022-10-05T10:29:48.496Z,54.82
2022-10-05T10:30:48.710Z,55.32
2022-10-05T10:31:49.378Z,54.93
2022-10-05T10:32:49.031Z,55.32
2022-10-05T10:33:49.231Z,55.82
2022-10-05T10:34:49.370Z,54.13
2022-10-05T10:35:49.553Z,53.73
2022-10-05T10:36:50.154Z,53.63
2022-10-05T10:37:50.173Z,53.83
2022-10-05T10:38:50.131Z,54.03
2022-10-05T10:39:50.273Z,54.03
2022-10-05T10:40:50.466Z,54.33
2022-10-05T10:41:50.622Z,54.63
2022-10-05T10:42:50.802Z,55.52
2022-10-05T10:43:51.012Z,55.42
2022-10-05T10:44:51.163Z,55.42
2022-10-05T10:45:51.315Z,55.42
2022-10-05T10:46:51.961Z,56.32
2022-10-05T10:47:51.675Z,57.21
2022-10-05T10:48:52.410Z,56.61
2022-10-05T10:49:52.031Z,56.61
2022-10-05T10:50:52.216Z,56.51
2022-10-05T10:51:52.395Z,56.32
2022-10-05T10:52:52.546Z,56.38
2022-10-05T10:53:52.761Z,56.98
2022-10-05T10:54:52.919Z,57.28
2022-10-05T10:55:53.071Z,56.68
2022-10-05T10:56:53.235Z,56.49
2022-10-05T10:57:53.396Z,56.36
2022-10-05T10:58:53.569Z,55.76
2022-10-05T10:59:53.711Z,55.76
2022-10-05T11:00:53.889Z,55.66
2022-10-05T11:01:54.094Z,55.34
2022-10-05T11:02:54.312Z,55.15
2022-10-05T11:03:54.421Z,54.94
2022-10-05T11:04:54.580Z,54.64
2022-10-05T11:05:54.751Z,54.52
2022-10-05T11:06:54.911Z,53.73
2022-10-05T11:07:55.071Z,53.73
2022-10-05T11:08:55.252Z,53.41
2022-10-05T11:09:55.392Z,53.80
2022-10-05T11:10:55.551Z,53.50
2022-10-05T11:11:55.706Z,52.91
2022-10-05T11:12:55.916Z,52.69
2022-10-05T11:13:56.084Z,52.59
2022-10-05T11:14:56.245Z,52.59
2022-10-05T11:15:56.492Z,52.49
2022-10-05T11:16:56.605Z,52.46
2022-10-05T11:17:56.784Z,52.46
2022-10-05T11:18:56.974Z,52.36
2022-10-05T11:20:03.959Z,52.14
2022-10-05T11:20:58.308Z,51.84
2022-10-05T11:21:57.516Z,51.65
2022-10-05T11:22:57.693Z,51.82
2022-10-05T11:23:57.877Z,51.62
2022-10-05T11:24:58.019Z,51.52
2022-10-05T11:25:58.217Z,51.42
2022-10-05T11:26:58.408Z,51.20
2022-10-05T11:27:58.591Z,51.00
2022-10-05T11:28:58.754Z,51.00
2022-10-05T11:29:58.931Z,51.00
2022-10-05T11:30:59.166Z,50.78
2022-10-05T11:31:59.300Z,50.68
2022-10-05T11:32:59.444Z,50.56
2022-10-05T11:33:59.622Z,50.36
2022-10-05T11:34:59.801Z,50.24
2022-10-05T11:35:59.989Z,49.84
2022-10-05T11:37:00.180Z,49.72
2022-10-05T11:38:00.331Z,49.52
2022-10-05T11:39:00.513Z,49.52
2022-10-05T11:40:00.702Z,49.92
2022-10-05T11:41:00.892Z,49.52
2022-10-05T11:42:01.044Z,49.52
2022-10-05T11:43:01.250Z,49.52
2022-10-05T11:44:06.103Z,49.52
2022-10-05T11:45:02.575Z,49.72
2022-10-05T11:46:01.819Z,49.62
2022-10-05T11:47:01.893Z,49.62
2022-10-05T11:48:02.056Z,49.65
2022-10-05T11:49:02.246Z,49.74
2022-10-05T11:50:02.396Z,49.65
2022-10-05T11:51:02.588Z,48.86
2022-10-05T11:52:02.770Z,48.86
2022-10-05T11:53:03.017Z,48.56
2022-10-05T11:54:03.148Z,48.88
2022-10-05T11:55:10.890Z,49.37
2022-10-05T11:56:04.469Z,49.27
2022-10-05T11:57:03.629Z,48.98
2022-10-05T11:58:03.779Z,48.68
2022-10-05T11:59:03.970Z,49.27
2022-10-05T12:00:04.194Z,48.88
2022-10-05T12:01:04.290Z,48.61
2022-10-05T12:02:04.445Z,48.71
2022-10-05T12:03:04.739Z,48.90
2022-10-05T12:04:04.883Z,48.71
2022-10-05T12:05:04.963Z,48.80
2022-10-05T12:06:05.134Z,49.01
2022-10-05T12:07:05.324Z,49.49
2022-10-05T12:08:05.514Z,49.49
2022-10-05T12:09:05.674Z,49.40
2022-10-05T12:10:05.866Z,49.57
2022-10-05T12:11:06.045Z,49.87
2022-10-05T12:12:06.234Z,50.56
2022-10-05T12:13:06.418Z,49.87
2022-10-05T12:14:06.618Z,49.74
2022-10-05T12:15:06.765Z,50.24
2022-10-05T12:16:06.970Z,49.35
2022-10-05T12:17:07.117Z,48.96
2022-10-05T12:18:07.297Z,48.93
2022-10-05T12:19:07.488Z,48.93
2022-10-05T12:20:07.661Z,49.03
2022-10-05T12:21:07.858Z,49.72
2022-10-05T12:22:08.000Z,48.91
2022-10-05T12:23:08.179Z,49.60
2022-10-05T12:24:08.390Z,48.91
2022-10-05T12:25:08.532Z,48.98
2022-10-05T12:26:09.241Z,49.28
2022-10-05T12:27:08.929Z,48.98
2022-10-05T12:28:09.107Z,48.88
2022-10-05T12:29:09.242Z,48.76
2022-10-05T12:30:09.436Z,48.47
2022-10-05T12:31:09.633Z,48.66
2022-10-05T12:32:09.768Z,48.64
2022-10-05T12:33:09.913Z,47.75
2022-10-05T12:34:10.103Z,47.66
2022-10-05T12:35:10.267Z,47.53
2022-10-05T12:36:10.426Z,47.44
2022-10-05T12:37:10.594Z,47.44
2022-10-05T12:38:10.794Z,47.31
2022-10-05T12:39:10.965Z,46.92
2022-10-05T12:40:12.092Z,46.72
2022-10-05T12:41:11.327Z,46.62
2022-10-05T12:42:11.505Z,46.70
2022-10-05T12:43:11.698Z,45.92
2022-10-05T12:44:11.864Z,45.81
2022-10-05T12:45:12.047Z,45.72
2022-10-05T12:46:12.250Z,45.60
2022-10-05T12:47:12.420Z,45.50
2022-10-05T12:48:12.599Z,45.40
2022-10-05T12:49:12.749Z,45.40
2022-10-05T12:50:12.963Z,45.09
2022-10-05T12:51:13.106Z,44.98
2022-10-05T12:52:13.316Z,44.98
2022-10-05T12:53:13.452Z,44.98
2022-10-05T12:54:13.640Z,44.98
2022-10-05T12:55:13.822Z,44.87
2022-10-05T12:56:14.447Z,44.87
2022-10-05T12:57:14.183Z,44.87
2022-10-05T12:58:14.323Z,44.87